Time;durP1;ratioP1;P1;durP2;ratioP2;P2;SDS_P1;SDS_P2;PMS_P1;PMS_P2;Temp;Humidity;BMP_temperature;BMP_pressure;BME280_temperature;BME280_humidity;BME280_pressure;Samples;Min_cycle;Max_cycle;Signal;HPM_P1;HPM_P2
2023/12/10 00:00:55;;;;;;;31.23;17.03;;;;;;;0.94;69.89;99075.28;4984231;28;97409;-74
2023/12/10 00:03:20;;;;;;;28.57;15.20;;;;;;;1.06;69.48;99076.81;4971435;28;96807;-73
2023/12/10 00:05:46;;;;;;;30.93;15.37;;;;;;;1.08;69.64;99068.19;4987584;28;97351;-71
2023/12/10 00:08:11;;;;;;;28.40;15.40;;;;;;;0.89;70.02;99065.00;4952952;28;101000;-71
2023/12/10 00:10:37;;;;;;;42.70;19.47;;;;;;;1.02;69.67;99068.28;4969922;28;98780;-72
2023/12/10 00:13:02;;;;;;;39.83;18.93;;;;;;;0.92;69.92;99052.91;4961753;28;96819;-71
2023/12/10 00:15:28;;;;;;;44.93;20.90;;;;;;;0.96;69.57;99047.69;4954611;28;96809;-71
2023/12/10 00:17:53;;;;;;;41.40;20.00;;;;;;;1.16;69.61;99060.28;4969228;28;97497;-71
2023/12/10 00:20:19;;;;;;;32.97;17.80;;;;;;;1.22;69.55;99051.56;4970279;28;97290;-71
2023/12/10 00:22:46;;;;;;;30.27;16.17;;;;;;;1.07;69.65;99055.25;4970971;28;100814;-71
2023/12/10 00:25:11;;;;;;;40.87;21.63;;;;;;;1.22;69.58;99069.69;4954028;28;97629;-71
2023/12/10 00:27:37;;;;;;;47.33;23.00;;;;;;;1.27;69.26;99062.69;4954560;28;101344;-71
2023/12/10 00:30:04;;;;;;;37.13;18.63;;;;;;;1.35;69.19;99068.59;4970034;28;101550;-71
2023/12/10 00:32:29;;;;;;;28.17;15.93;;;;;;;1.24;69.52;99071.34;4970982;28;96805;-71
2023/12/10 00:34:55;;;;;;;28.00;16.20;;;;;;;1.34;69.11;99074.66;4966594;28;96807;-71
2023/12/10 00:37:21;;;;;;;25.70;14.90;;;;;;;1.39;68.54;99070.25;4938290;28;101574;-71
2023/12/10 00:39:46;;;;;;;27.10;15.93;;;;;;;1.45;68.75;99062.38;4954022;28;101328;-71
2023/12/10 00:42:12;;;;;;;29.20;15.90;;;;;;;1.65;68.65;99063.78;4971291;28;97232;-71
2023/12/10 00:44:37;;;;;;;25.77;15.70;;;;;;;1.58;68.03;99070.81;4967977;28;97754;-71
2023/12/10 00:47:03;;;;;;;29.60;15.67;;;;;;;1.65;68.05;99063.78;4970237;28;97465;-72
2023/12/10 00:49:28;;;;;;;24.20;14.97;;;;;;;1.62;68.33;99069.84;4951921;28;100810;-72
2023/12/10 00:51:54;;;;;;;26.20;15.73;;;;;;;1.57;68.53;99069.06;4970153;28;96700;-72
2023/12/10 00:54:19;;;;;;;27.73;15.30;;;;;;;1.65;68.38;99076.72;4970223;28;96866;-72
2023/12/10 00:56:45;;;;;;;27.70;16.00;;;;;;;1.68;67.85;99079.25;4969741;28;97880;-73
2023/12/10 00:59:10;;;;;;;29.07;16.90;;;;;;;1.81;67.68;99080.75;4970803;28;97262;-72
2023/12/10 01:01:36;;;;;;;25.97;15.73;;;;;;;1.91;67.58;99094.38;4970999;28;97278;-72
2023/12/10 01:04:01;;;;;;;55.30;25.83;;;;;;;2.00;67.24;99079.50;4937714;28;97247;-72
2023/12/10 01:06:27;;;;;;;94.40;38.87;;;;;;;2.04;67.11;99090.69;4970860;28;97672;-72
2023/12/10 01:08:53;;;;;;;47.80;24.33;;;;;;;1.95;66.91;99091.69;4954189;28;101591;-72
2023/12/10 01:11:18;;;;;;;51.03;22.97;;;;;;;1.94;67.42;99096.88;4953766;28;96988;-72
2023/12/10 01:13:43;;;;;;;80.87;35.00;;;;;;;1.89;67.33;99098.69;4953391;28;97790;-72
2023/12/10 01:16:11;;;;;;;58.70;26.63;;;;;;;1.92;67.29;99106.41;4969580;28;98204;-72
2023/12/10 01:18:37;;;;;;;56.23;27.07;;;;;;;1.87;67.89;99103.91;4968981;28;98017;-72
2023/12/10 01:21:04;;;;;;;32.93;18.63;;;;;;;1.91;67.72;99107.31;4936671;28;98101;-72
2023/12/10 01:23:29;;;;;;;32.30;18.90;;;;;;;1.93;67.58;99101.22;4952646;28;97185;-72
2023/12/10 01:25:55;;;;;;;28.23;15.87;;;;;;;1.86;67.98;99093.59;4951722;28;99210;-72
2023/12/10 01:28:21;;;;;;;29.83;16.13;;;;;;;2.02;67.65;99097.59;4969743;28;101695;-71
2023/12/10 01:30:46;;;;;;;37.93;20.40;;;;;;;1.92;67.72;99094.34;4952591;28;97895;-71
2023/12/10 01:33:12;;;;;;;43.13;23.57;;;;;;;1.99;67.49;99085.56;4986285;28;97811;-71
2023/12/10 01:35:37;;;;;;;34.93;19.93;;;;;;;2.02;67.30;99079.50;4968253;28;101632;-71
2023/12/10 01:38:03;;;;;;;26.03;17.00;;;;;;;1.96;67.91;99070.09;4969412;28;98060;-71
2023/12/10 01:40:28;;;;;;;28.70;15.93;;;;;;;1.89;67.93;99072.81;4953322;28;97613;-71
2023/12/10 01:42:54;;;;;;;29.07;16.43;;;;;;;1.90;67.74;99095.25;4938264;28;96969;-71
2023/12/10 01:45:19;;;;;;;25.97;15.27;;;;;;;2.07;67.64;99085.44;4968524;28;97315;-71
2023/12/10 01:47:47;;;;;;;26.33;15.97;;;;;;;2.14;66.93;99093.94;4969354;28;97440;-72
2023/12/10 01:50:13;;;;;;;27.83;16.37;;;;;;;2.16;67.17;99092.19;4966283;28;97893;-71
2023/12/10 01:52:40;;;;;;;23.53;14.13;;;;;;;2.10;67.44;99093.16;4955083;28;96913;-71
2023/12/10 01:55:06;;;;;;;26.53;15.90;;;;;;;2.01;67.21;99085.56;4937452;28;101132;-72
2023/12/10 01:57:35;;;;;;;26.17;15.97;;;;;;;1.93;67.49;99067.56;4936671;28;101280;-71
2023/12/10 02:00:00;;;;;;;24.77;14.47;;;;;;;1.78;68.03;99073.03;4950616;28;96685;-71
2023/12/10 02:02:26;;;;;;;24.17;15.33;;;;;;;1.51;68.35;99062.31;4985189;28;97669;-71
2023/12/10 02:04:54;;;;;;;29.97;14.63;;;;;;;1.52;69.10;99068.34;4951329;28;97625;-72
2023/12/10 02:07:23;;;;;;;25.57;15.53;;;;;;;1.32;69.79;99059.16;4968800;28;97348;-71
2023/12/10 02:09:50;;;;;;;24.23;14.83;;;;;;;1.26;69.82;99032.56;4951643;28;97523;-71
2023/12/10 02:12:17;;;;;;;22.33;13.23;;;;;;;1.29;69.82;99038.53;4952230;28;96881;-71
2023/12/10 02:14:42;;;;;;;22.93;13.43;;;;;;;1.31;70.51;99043.69;4935630;28;101331;-71
2023/12/10 02:17:08;;;;;;;21.03;13.33;;;;;;;1.37;70.30;99030.66;4944906;28;101445;-71
2023/12/10 02:19:35;;;;;;;21.13;13.03;;;;;;;1.47;70.09;99041.69;4951440;28;96726;-71
2023/12/10 02:22:01;;;;;;;24.03;14.40;;;;;;;1.55;69.70;99038.09;4968279;28;97996;-71
2023/12/10 02:24:39;;;;;;;21.97;13.60;;;;;;;1.53;69.94;99032.06;4950671;28;101568;-71
2023/12/10 02:27:04;;;;;;;20.93;12.43;;;;;;;1.49;70.01;99030.44;4952312;28;100900;-71
2023/12/10 02:29:30;;;;;;;21.23;13.17;;;;;;;1.49;70.18;99029.59;4951641;28;98019;-73
2023/12/10 02:31:55;;;;;;;19.67;11.97;;;;;;;1.45;71.12;99028.75;4938127;28;97406;-71
2023/12/10 02:34:22;;;;;;;21.43;13.30;;;;;;;1.46;70.47;99021.88;4967789;28;97456;-71
2023/12/10 02:36:47;;;;;;;20.43;11.53;;;;;;;1.50;70.46;99003.69;4951281;28;101144;-71
2023/12/10 02:39:13;;;;;;;21.13;11.70;;;;;;;1.68;70.10;99012.81;4951646;28;96831;-72
2023/12/10 02:41:38;;;;;;;19.97;11.80;;;;;;;1.68;70.31;98994.72;4968836;28;97481;-71
2023/12/10 02:44:04;;;;;;;19.60;11.90;;;;;;;1.99;69.88;99014.84;4934335;28;101054;-71
2023/12/10 02:46:29;;;;;;;25.30;12.73;;;;;;;2.04;69.63;99016.44;4951474;28;101128;-71
2023/12/10 02:48:55;;;;;;;22.50;12.23;;;;;;;2.12;68.88;99005.91;4951458;28;96823;-72
2023/12/10 02:51:21;;;;;;;19.97;11.33;;;;;;;2.20;69.01;99013.53;4934618;28;96870;-71
2023/12/10 02:53:46;;;;;;;17.83;10.90;;;;;;;2.14;68.79;99008.50;4967051;28;101832;-71
2023/12/10 02:56:12;;;;;;;18.17;12.30;;;;;;;2.05;69.41;98999.19;4968191;28;98502;-72
2023/12/10 02:58:37;;;;;;;16.37;10.50;;;;;;;2.13;69.89;99019.75;4968515;28;97330;-71
2023/12/10 03:01:03;;;;;;;14.37;9.67;;;;;;;2.12;70.29;99002.47;4967555;28;96974;-72
2023/12/10 03:03:28;;;;;;;17.67;10.63;;;;;;;2.12;70.74;99015.44;4950910;28;101098;-72
2023/12/10 03:05:54;;;;;;;14.73;9.33;;;;;;;2.10;71.28;99007.72;4940437;28;101026;-72
2023/12/10 03:08:19;;;;;;;15.07;10.07;;;;;;;2.02;71.84;99015.63;4968067;28;97393;-72
2023/12/10 03:10:45;;;;;;;16.77;10.53;;;;;;;2.06;71.97;99006.06;4966907;28;96893;-72
2023/12/10 03:13:10;;;;;;;18.43;10.73;;;;;;;2.08;72.35;99001.69;4966328;28;97923;-72
2023/12/10 03:15:36;;;;;;;15.03;9.87;;;;;;;2.07;72.69;99012.94;4951175;28;97357;-72
2023/12/10 03:18:02;;;;;;;15.17;9.93;;;;;;;2.06;73.12;99015.56;4968099;28;97389;-72
2023/12/10 03:20:27;;;;;;;15.30;9.97;;;;;;;2.09;73.05;99012.91;4950748;28;97396;-72
2023/12/10 03:22:53;;;;;;;15.97;10.30;;;;;;;2.07;73.63;99006.94;4967134;28;97447;-72
2023/12/10 03:25:18;;;;;;;21.70;12.63;;;;;;;2.07;74.00;99014.69;4967130;28;97854;-73
2023/12/10 03:27:44;;;;;;;25.33;15.07;;;;;;;2.09;74.12;99023.25;4951608;28;96757;-72
2023/12/10 03:30:09;;;;;;;25.30;13.80;;;;;;;2.05;74.33;99022.47;4951120;28;97714;-71
2023/12/10 03:32:35;;;;;;;35.83;18.07;;;;;;;1.99;74.22;99020.88;4967296;28;101050;-71
2023/12/10 03:35:00;;;;;;;26.33;14.60;;;;;;;1.89;74.80;99014.19;4966527;28;101889;-72
2023/12/10 03:37:26;;;;;;;20.70;12.80;;;;;;;1.94;75.48;99025.28;4951182;28;97229;-72
2023/12/10 03:39:51;;;;;;;20.70;12.87;;;;;;;1.87;75.76;99028.88;4950711;28;97295;-71
2023/12/10 03:42:17;;;;;;;22.00;13.23;;;;;;;1.92;75.73;99028.75;4967724;28;98001;-71
2023/12/10 03:44:42;;;;;;;19.63;12.60;;;;;;;1.94;76.09;99045.13;4950299;28;97312;-72
2023/12/10 03:47:08;;;;;;;19.40;12.13;;;;;;;1.94;76.22;99045.97;4968563;28;97163;-72
2023/12/10 03:49:33;;;;;;;19.03;12.00;;;;;;;1.85;76.29;99030.63;4950299;28;97201;-72
2023/12/10 03:51:59;;;;;;;17.47;12.17;;;;;;;1.89;76.90;99036.59;4977989;28;97636;-72
2023/12/10 03:54:24;;;;;;;18.13;12.13;;;;;;;1.84;76.98;99038.44;4935607;28;101815;-72
2023/12/10 03:56:50;;;;;;;18.97;13.13;;;;;;;1.86;77.59;99045.25;4954160;28;98184;-72
2023/12/10 03:59:15;;;;;;;20.30;12.40;;;;;;;1.90;77.28;99043.50;4942576;28;98000;-72
2023/12/10 04:01:44;;;;;;;20.40;13.30;;;;;;;1.93;77.50;99056.38;4971848;28;97606;-72
2023/12/10 04:04:11;;;;;;;28.20;16.10;;;;;;;1.85;77.75;99053.06;4957209;28;98043;-72
2023/12/10 04:06:40;;;;;;;22.37;14.07;;;;;;;1.87;77.60;99052.16;4958724;28;97190;-72
2023/12/10 04:09:09;;;;;;;19.83;12.77;;;;;;;1.89;77.53;99053.00;4957833;28;98113;-72
2023/12/10 04:11:35;;;;;;;16.13;11.20;;;;;;;1.92;77.59;99050.34;4976013;28;101691;-72
2023/12/10 04:14:01;;;;;;;17.83;11.90;;;;;;;1.95;77.64;99055.47;4958489;28;101922;-72
2023/12/10 04:16:29;;;;;;;18.17;12.77;;;;;;;1.90;77.64;99057.28;4964823;28;97227;-72
2023/12/10 04:18:54;;;;;;;21.30;13.80;;;;;;;2.10;77.76;99062.06;4944850;28;96994;-72
2023/12/10 04:21:21;;;;;;;24.77;14.53;;;;;;;2.12;77.43;99060.28;4947279;28;101382;-71
2023/12/10 04:23:47;;;;;;;21.57;13.43;;;;;;;2.24;77.06;99061.78;4957213;28;101414;-71
2023/12/10 04:26:12;;;;;;;21.90;13.07;;;;;;;2.15;76.96;99061.97;4975843;28;96861;-71
2023/12/10 04:28:38;;;;;;;16.97;11.63;;;;;;;2.30;76.68;99056.50;4967570;28;96904;-71
2023/12/10 04:31:04;;;;;;;20.53;13.70;;;;;;;2.38;76.62;99058.91;4979431;28;98466;-71
2023/12/10 04:33:30;;;;;;;20.83;12.87;;;;;;;2.40;76.17;99054.56;4950166;28;101592;-71
2023/12/10 04:35:56;;;;;;;17.13;11.83;;;;;;;2.39;76.06;99056.31;4965096;28;96785;-71
2023/12/10 04:38:21;;;;;;;23.30;14.43;;;;;;;2.37;75.55;99049.44;4942924;28;97008;-71
2023/12/10 04:40:47;;;;;;;26.27;15.50;;;;;;;2.33;75.60;99063.31;4946522;28;101397;-71
2023/12/10 04:43:12;;;;;;;24.00;14.53;;;;;;;2.26;76.05;99060.03;4972481;28;97378;-70
2023/12/10 04:45:38;;;;;;;21.77;13.90;;;;;;;2.21;76.53;99069.59;4977830;28;97209;-71
2023/12/10 04:48:04;;;;;;;19.53;12.93;;;;;;;2.23;76.17;99079.06;4947375;28;97243;-71
2023/12/10 04:50:30;;;;;;;23.50;14.20;;;;;;;2.04;76.30;99062.19;4977814;28;101446;-71
2023/12/10 04:52:56;;;;;;;21.90;14.03;;;;;;;2.11;76.46;99076.72;4973321;28;97962;-71
2023/12/10 04:55:21;;;;;;;20.70;12.80;;;;;;;2.07;76.39;99082.00;4946084;28;97349;-71
2023/12/10 04:57:47;;;;;;;19.63;12.40;;;;;;;2.02;76.85;99082.94;4961742;28;97258;-71
2023/12/10 05:00:13;;;;;;;22.27;13.60;;;;;;;2.04;76.63;99088.94;4978797;28;97469;-71
2023/12/10 05:02:39;;;;;;;23.23;13.60;;;;;;;2.07;76.36;99075.09;4956630;28;100348;-72
2023/12/10 05:05:05;;;;;;;19.70;13.13;;;;;;;2.10;76.39;99087.13;4961022;28;97376;-71
2023/12/10 05:07:31;;;;;;;22.13;13.17;;;;;;;2.07;76.64;99085.44;4965745;28;96852;-71
2023/12/10 05:09:57;;;;;;;20.33;12.93;;;;;;;2.15;76.28;99087.84;4976974;28;97360;-72
2023/12/10 05:12:23;;;;;;;20.73;13.17;;;;;;;2.13;76.13;99087.91;4956386;28;102681;-72
2023/12/10 05:14:48;;;;;;;19.67;12.70;;;;;;;2.22;76.21;99094.63;4958007;28;97977;-71
2023/12/10 05:17:14;;;;;;;19.60;11.60;;;;;;;2.14;76.17;99092.19;4977702;28;97236;-72
2023/12/10 05:19:39;;;;;;;20.80;12.77;;;;;;;2.08;75.45;99066.44;4980450;28;98105;-71
2023/12/10 05:22:05;;;;;;;16.13;10.30;;;;;;;2.15;75.75;99085.28;4957999;28;100900;-71
2023/12/10 05:24:30;;;;;;;20.60;10.93;;;;;;;2.20;75.44;99089.47;4961929;28;96768;-71
2023/12/10 05:26:56;;;;;;;16.13;10.77;;;;;;;2.08;75.66;99088.88;4965600;28;96932;-71
2023/12/10 05:29:21;;;;;;;17.30;10.47;;;;;;;2.17;75.56;99099.91;4958796;28;101334;-72
2023/12/10 05:31:47;;;;;;;16.83;10.07;;;;;;;2.20;75.51;99099.84;4960884;28;102453;-71
2023/12/10 05:34:12;;;;;;;16.13;10.33;;;;;;;2.23;74.67;99102.38;4955396;28;97248;-71
2023/12/10 05:36:38;;;;;;;16.60;10.10;;;;;;;2.28;74.72;99110.06;4956440;28;97421;-71
2023/12/10 05:39:04;;;;;;;13.87;8.90;;;;;;;2.19;74.74;99115.41;4951688;28;100648;-71
2023/12/10 05:41:29;;;;;;;15.13;9.87;;;;;;;2.12;74.97;99093.09;4967372;28;101789;-72
2023/12/10 05:43:54;;;;;;;14.90;9.17;;;;;;;2.24;74.55;99108.38;4968280;28;97661;-71
2023/12/10 05:46:20;;;;;;;15.07;8.37;;;;;;;2.21;74.44;99121.41;4953044;28;96978;-72
2023/12/10 05:48:46;;;;;;;13.20;8.83;;;;;;;2.25;74.32;99118.72;4952523;28;100503;-71
2023/12/10 05:51:11;;;;;;;14.93;9.50;;;;;;;2.17;74.38;99107.66;4967686;28;97547;-71
2023/12/10 05:53:37;;;;;;;14.37;8.90;;;;;;;2.30;74.04;99125.53;4935345;28;97852;-71
2023/12/10 05:56:02;;;;;;;12.30;8.67;;;;;;;2.37;73.95;99124.56;4968854;28;97760;-71
2023/12/10 05:58:28;;;;;;;14.83;8.80;;;;;;;2.35;73.99;99134.09;4970274;28;98512;-71
2023/12/10 06:00:53;;;;;;;14.90;9.20;;;;;;;2.42;74.26;99141.72;4951369;28;101115;-71
2023/12/10 06:03:19;;;;;;;16.53;10.30;;;;;;;2.41;73.75;99132.22;4969930;28;97410;-71
2023/12/10 06:05:44;;;;;;;12.17;8.73;;;;;;;2.48;73.14;99131.22;4983699;28;97250;-71
2023/12/10 06:08:10;;;;;;;14.93;9.50;;;;;;;2.41;73.48;99140.00;4966419;28;100001;-71
2023/12/10 06:10:36;;;;;;;14.77;9.77;;;;;;;2.44;73.36;99144.25;4937286;28;101250;-72
2023/12/10 06:13:02;;;;;;;14.40;8.93;;;;;;;2.42;73.74;99146.91;4948219;28;97298;-71
2023/12/10 06:15:28;;;;;;;11.90;8.13;;;;;;;2.45;73.16;99146.00;4969123;28;97171;-71
2023/12/10 06:17:53;;;;;;;16.20;9.63;;;;;;;2.48;73.59;99151.97;4941564;28;101695;-71
2023/12/10 06:20:19;;;;;;;14.73;8.80;;;;;;;2.42;73.27;99148.66;4968708;28;97654;-71
2023/12/10 06:22:44;;;;;;;14.13;8.50;;;;;;;2.44;73.59;99154.63;4967603;28;98027;-71
2023/12/10 06:25:10;;;;;;;14.80;9.07;;;;;;;2.36;73.78;99144.44;4939631;28;97404;-71
2023/12/10 06:27:35;;;;;;;13.23;8.87;;;;;;;2.42;73.46;99170.22;4951094;28;98035;-71
2023/12/10 06:30:01;;;;;;;16.10;9.63;;;;;;;2.44;73.63;99175.34;4960598;28;97299;-71
2023/12/10 06:32:27;;;;;;;15.23;8.73;;;;;;;2.43;73.25;99173.66;4951410;28;96768;-71
2023/12/10 06:34:53;;;;;;;15.60;9.73;;;;;;;2.43;73.70;99173.66;4936296;28;97271;-71
2023/12/10 06:37:20;;;;;;;18.73;9.57;;;;;;;2.43;73.62;99176.25;4968182;28;97577;-71
2023/12/10 06:39:45;;;;;;;16.90;10.27;;;;;;;2.39;73.37;99159.91;4938244;28;101261;-71
2023/12/10 06:42:10;;;;;;;15.27;9.27;;;;;;;2.48;72.90;99193.41;4948354;28;98137;-72
2023/12/10 06:44:36;;;;;;;17.53;9.83;;;;;;;2.52;73.54;99199.38;4951422;28;97326;-71
2023/12/10 06:47:02;;;;;;;13.83;8.90;;;;;;;2.52;72.97;99190.75;4968208;28;97913;-71
2023/12/10 06:49:28;;;;;;;11.67;7.60;;;;;;;2.52;72.72;99193.34;4967523;28;97386;-71
2023/12/10 06:51:53;;;;;;;11.67;7.60;;;;;;;2.56;72.59;99215.72;4950099;28;98038;-71
2023/12/10 06:54:19;;;;;;;10.67;7.37;;;;;;;2.62;72.55;99228.56;4968158;28;97343;-72
2023/12/10 06:56:44;;;;;;;10.07;5.93;;;;;;;2.65;72.73;99212.97;4951262;28;100994;-72
2023/12/10 06:59:10;;;;;;;9.23;6.10;;;;;;;2.70;72.31;99218.88;4951814;28;100602;-71
2023/12/10 07:01:37;;;;;;;7.40;5.73;;;;;;;2.73;72.41;99226.59;4953525;28;97049;-71
2023/12/10 07:04:07;;;;;;;10.17;6.57;;;;;;;2.77;72.60;99236.03;4951187;28;96888;-71
2023/12/10 07:06:33;;;;;;;10.97;6.50;;;;;;;2.78;72.03;99229.97;4968208;28;97509;-71
2023/12/10 07:08:58;;;;;;;9.60;6.90;;;;;;;2.74;72.25;99225.75;4949420;28;101343;-71
2023/12/10 07:11:24;;;;;;;16.80;9.47;;;;;;;2.76;72.13;99231.72;4969371;28;97469;-71
2023/12/10 07:13:49;;;;;;;13.37;8.93;;;;;;;2.77;72.42;99233.44;4941315;28;97433;-71
2023/12/10 07:16:16;;;;;;;45.40;18.30;;;;;;;2.79;72.34;99226.47;4966950;28;100726;-72
2023/12/10 07:18:41;;;;;;;37.93;16.27;;;;;;;2.75;71.99;99231.78;4949718;28;101201;-72
2023/12/10 07:21:07;;;;;;;42.83;16.30;;;;;;;2.61;72.84;99211.31;4961343;28;97305;-71
2023/12/10 07:23:38;;;;;;;46.07;15.80;;;;;;;2.64;72.32;99222.44;4951327;28;96933;-71
2023/12/10 07:26:05;;;;;;;49.15;18.17;;;;;;;2.78;72.36;99223.94;4965280;28;100954;-71
2023/12/10 07:28:30;;;;;;;31.83;13.60;;;;;;;2.89;72.05;99224.56;4967031;28;97944;-72
2023/12/10 07:30:56;;;;;;;23.23;11.57;;;;;;;2.95;72.18;99237.41;4950816;28;96781;-71
2023/12/10 07:33:22;;;;;;;33.43;16.70;;;;;;;2.88;72.57;99246.19;4950724;28;98110;-71
2023/12/10 07:35:47;;;;;;;19.30;10.40;;;;;;;2.91;72.26;99238.38;4937947;28;99597;-71
2023/12/10 07:38:13;;;;;;;80.37;29.13;;;;;;;2.85;72.26;99256.59;4930584;28;98984;-71
2023/12/10 07:40:39;;;;;;;63.70;25.53;;;;;;;2.78;72.41;99249.84;4933240;28;97473;-72
2023/12/10 07:43:05;;;;;;;18.80;8.80;;;;;;;2.73;72.41;99242.16;4952265;28;97426;-72
2023/12/10 07:45:31;;;;;;;15.73;8.40;;;;;;;2.75;72.64;99239.53;4967487;28;97970;-71
2023/12/10 07:47:57;;;;;;;16.97;9.87;;;;;;;2.78;73.39;99244.66;4951354;28;99605;-72
2023/12/10 07:50:22;;;;;;;14.23;8.70;;;;;;;2.93;72.89;99254.72;4949947;28;96871;-71
2023/12/10 07:52:48;;;;;;;12.07;7.73;;;;;;;2.93;73.03;99259.91;4967076;28;97012;-71
2023/12/10 07:55:13;;;;;;;34.43;17.10;;;;;;;2.86;73.12;99253.16;4947608;28;99754;-72
2023/12/10 07:57:39;;;;;;;32.23;14.80;;;;;;;2.77;73.26;99254.19;4935797;28;100999;-71
2023/12/10 08:00:05;;;;;;;32.83;16.20;;;;;;;2.76;73.51;99260.22;4955351;28;96722;-71
2023/12/10 08:02:37;;;;;;;44.53;18.67;;;;;;;2.77;73.35;99266.31;4968963;28;97424;-71
2023/12/10 08:05:03;;;;;;;32.97;14.23;;;;;;;2.72;73.57;99268.97;4969486;28;96929;-71
2023/12/10 08:07:28;;;;;;;14.53;8.13;;;;;;;2.75;73.98;99271.50;4968217;28;99152;-70
2023/12/10 08:09:54;;;;;;;62.50;23.90;;;;;;;2.70;74.07;99274.16;4970912;28;98100;-70
2023/12/10 08:12:19;;;;;;;24.87;11.83;;;;;;;2.69;73.84;99275.06;4970659;28;97284;-71
2023/12/10 08:14:45;;;;;;;33.33;14.03;;;;;;;2.72;74.17;99256.00;4958440;28;98250;-71
2023/12/10 08:17:11;;;;;;;28.77;13.90;;;;;;;2.77;74.08;99255.94;4971150;28;97433;-71
2023/12/10 08:19:37;;;;;;;39.23;16.07;;;;;;;2.89;74.16;99273.81;4953734;28;97262;-71
2023/12/10 08:22:03;;;;;;;120.30;41.83;;;;;;;2.88;74.16;99274.69;4969593;28;97375;-71
2023/12/10 08:24:29;;;;;;;40.23;16.90;;;;;;;2.85;73.92;99283.41;4954299;28;101589;-71
2023/12/10 08:26:54;;;;;;;42.80;16.77;;;;;;;2.95;74.27;99281.47;4971960;28;97290;-71
2023/12/10 08:29:20;;;;;;;28.83;12.80;;;;;;;3.02;74.31;99288.25;4952114;28;96827;-71
2023/12/10 08:31:45;;;;;;;99.73;34.33;;;;;;;3.10;74.00;99296.72;4969590;28;96829;-71
2023/12/10 08:34:11;;;;;;;73.17;25.37;;;;;;;2.96;74.00;99301.31;4951514;28;101334;-71
2023/12/10 08:36:38;;;;;;;107.93;34.43;;;;;;;2.92;74.57;99297.94;4971135;28;101013;-73
2023/12/10 08:39:04;;;;;;;84.00;31.63;;;;;;;2.91;74.88;99304.03;4951128;28;97351;-72
2023/12/10 08:41:30;;;;;;;68.97;28.47;;;;;;;2.92;75.30;99300.53;4953664;28;97178;-71
2023/12/10 08:43:56;;;;;;;39.40;17.37;;;;;;;2.88;75.43;99298.91;4954391;28;97938;-71
2023/12/10 08:46:21;;;;;;;60.03;26.30;;;;;;;2.91;75.90;99298.84;4970191;28;101366;-72
2023/12/10 08:48:47;;;;;;;53.57;21.97;;;;;;;2.89;75.81;99300.59;4936769;28;96832;-73
2023/12/10 08:51:13;;;;;;;45.10;19.87;;;;;;;2.88;76.18;99296.31;4955084;28;96958;-72
2023/12/10 08:53:39;;;;;;;33.87;15.93;;;;;;;2.87;76.25;99284.22;4959487;28;100963;-73
2023/12/10 08:56:05;;;;;;;18.93;12.17;;;;;;;3.03;76.12;99296.91;4955535;28;97938;-73
2023/12/10 08:58:31;;;;;;;15.73;9.63;;;;;;;3.08;76.42;99303.69;4961543;28;96874;-83
2023/12/10 09:00:57;;;;;;;14.00;8.67;;;;;;;3.13;76.37;99306.19;4953765;28;97925;-76
2023/12/10 09:03:22;;;;;;;31.50;14.93;;;;;;;3.18;75.95;99305.22;4969198;28;97692;-74
2023/12/10 09:05:48;;;;;;;17.27;10.23;;;;;;;3.14;75.99;99297.50;4936061;28;101295;-74
2023/12/10 09:08:13;;;;;;;14.17;8.63;;;;;;;3.20;75.67;99281.84;4968251;28;98265;-74
2023/12/10 09:10:39;;;;;;;42.23;18.80;;;;;;;3.33;75.88;99296.25;4951984;28;97933;-76
2023/12/10 09:13:04;;;;;;;18.17;10.47;;;;;;;3.31;75.84;99282.47;4953365;28;101990;-74
2023/12/10 09:15:30;;;;;;;18.27;9.23;;;;;;;3.32;75.97;99281.59;4951328;28;97975;-76
2023/12/10 09:17:55;;;;;;;23.97;11.97;;;;;;;3.47;75.69;99305.50;4948551;28;97288;-75
2023/12/10 09:20:21;;;;;;;19.93;11.93;;;;;;;3.38;75.98;99293.59;4952533;28;98236;-76
2023/12/10 09:22:46;;;;;;;27.80;13.60;;;;;;;3.45;75.77;99292.56;4963444;28;98545;-74
2023/12/10 09:25:12;;;;;;;24.57;14.53;;;;;;;3.42;76.07;99292.63;4934789;28;100893;-73
2023/12/10 09:27:37;;;;;;;22.53;12.53;;;;;;;3.38;76.02;99302.22;4955238;28;96785;-74
2023/12/10 09:30:03;;;;;;;34.83;16.60;;;;;;;3.58;75.70;99300.94;4935289;28;96860;-77
2023/12/10 09:32:29;;;;;;;27.77;14.67;;;;;;;3.55;75.46;99282.81;4951036;28;97321;-74
2023/12/10 09:34:55;;;;;;;16.90;10.10;;;;;;;3.63;75.59;99306.88;4956125;28;98133;-74
2023/12/10 09:37:20;;;;;;;22.80;12.23;;;;;;;3.73;75.32;99304.94;4969930;28;98798;-73
2023/12/10 09:39:46;;;;;;;26.63;13.33;;;;;;;3.77;74.68;99302.22;4948123;28;97737;-75
2023/12/10 09:42:12;;;;;;;30.00;17.07;;;;;;;3.71;74.15;99301.53;4939374;28;100967;-71
2023/12/10 09:44:38;;;;;;;33.80;17.10;;;;;;;3.61;74.24;99308.66;4973570;28;98195;-71
2023/12/10 09:47:07;;;;;;;19.63;12.27;;;;;;;3.64;75.08;99300.81;4973509;28;96814;-71
2023/12/10 09:49:33;;;;;;;21.20;13.00;;;;;;;3.67;74.49;99312.88;4948247;28;97280;-72
2023/12/10 09:51:59;;;;;;;35.10;18.87;;;;;;;3.73;74.30;99308.38;4943173;28;101170;-71
2023/12/10 09:54:25;;;;;;;22.67;12.73;;;;;;;3.77;74.36;99309.16;4956191;28;98941;-71
2023/12/10 09:56:51;;;;;;;21.50;11.80;;;;;;;3.73;74.31;99305.78;4958276;28;97430;-72
2023/12/10 09:59:17;;;;;;;17.03;10.40;;;;;;;3.81;74.58;99306.47;4954040;28;97725;-72
2023/12/10 10:01:50;;;;;;;18.17;11.40;;;;;;;3.76;74.34;99310.06;4956787;28;101373;-72
2023/12/10 10:04:16;;;;;;;19.00;10.87;;;;;;;3.91;73.81;99308.88;4941252;28;101740;-74
2023/12/10 10:06:42;;;;;;;22.77;12.03;;;;;;;3.90;74.22;99315.81;4970803;28;97516;-72
2023/12/10 10:09:07;;;;;;;35.30;17.97;;;;;;;4.11;73.36;99326.59;4960270;28;96890;-72
2023/12/10 10:11:33;;;;;;;66.57;29.77;;;;;;;4.15;73.09;99325.59;4972148;28;101577;-71
2023/12/10 10:13:58;;;;;;;30.20;15.47;;;;;;;4.12;72.96;99323.94;4954513;28;97346;-70
2023/12/10 10:16:24;;;;;;;26.43;12.90;;;;;;;4.16;72.75;99335.09;4945534;28;97357;-71
2023/12/10 10:18:49;;;;;;;28.93;15.50;;;;;;;4.13;72.28;99335.16;4977579;28;96877;-73
2023/12/10 10:21:15;;;;;;;34.47;16.50;;;;;;;4.06;72.70;99337.06;4951043;28;100877;-75
2023/12/10 10:23:42;;;;;;;23.27;12.90;;;;;;;3.98;73.10;99332.03;4986786;28;101644;-72
2023/12/10 10:26:08;;;;;;;26.10;14.53;;;;;;;4.14;73.01;99331.72;4961251;28;98261;-73
2023/12/10 10:28:35;;;;;;;26.33;14.33;;;;;;;4.13;72.43;99328.25;4961238;28;98945;-71
2023/12/10 10:31:01;;;;;;;28.33;15.30;;;;;;;4.20;72.57;99328.97;4973792;28;100764;-70
2023/12/10 10:33:27;;;;;;;28.90;14.83;;;;;;;4.17;72.62;99316.03;4975010;28;97694;-74
2023/12/10 10:35:53;;;;;;;26.83;12.87;;;;;;;4.21;72.81;99331.50;4958852;28;97483;-74
2023/12/10 10:38:20;;;;;;;25.83;13.37;;;;;;;4.37;72.65;99331.16;4961206;28;96876;-72
2023/12/10 10:40:49;;;;;;;28.53;15.10;;;;;;;4.49;72.00;99339.50;4973760;28;99189;-73
2023/12/10 10:43:15;;;;;;;32.47;15.87;;;;;;;4.47;71.76;99330.88;4970753;28;97679;-74
2023/12/10 10:45:41;;;;;;;24.27;14.20;;;;;;;4.63;71.56;99344.34;4956626;28;96864;-74
2023/12/10 10:48:08;;;;;;;29.03;15.00;;;;;;;4.70;72.01;99340.69;4971806;28;101667;-74
2023/12/10 10:50:35;;;;;;;28.37;15.40;;;;;;;4.68;71.99;99336.41;4954334;28;101646;-76
2023/12/10 10:53:01;;;;;;;31.40;16.77;;;;;;;4.76;71.50;99340.53;4976106;28;101485;-75
2023/12/10 10:55:27;;;;;;;32.83;16.67;;;;;;;4.84;71.12;99342.09;4943555;28;98023;-75
2023/12/10 10:57:54;;;;;;;32.37;17.77;;;;;;;4.83;71.28;99345.56;4967219;28;97388;-77
2023/12/10 11:00:20;;;;;;;30.70;18.57;;;;;;;4.89;71.53;99348.88;4974988;28;98166;-76
2023/12/10 11:02:47;;;;;;;35.33;18.13;;;;;;;4.97;71.15;99348.66;4957166;28;101556;-75
2023/12/10 11:05:13;;;;;;;36.37;19.87;;;;;;;4.98;71.01;99343.44;4976015;28;96930;-75
2023/12/10 11:07:40;;;;;;;35.67;19.57;;;;;;;5.01;71.02;99342.50;4975064;28;96872;-75
2023/12/10 11:10:07;;;;;;;36.33;19.43;;;;;;;5.08;70.68;99344.03;4972826;28;97765;-76
2023/12/10 11:12:42;;;;;;;44.70;22.43;;;;;;;5.21;70.79;99350.63;4978287;28;100532;-75
2023/12/10 11:15:13;;;;;;;45.47;22.53;;;;;;;5.10;71.21;99352.66;4966263;28;97781;-75
2023/12/10 11:17:52;;;;;;;41.05;21.27;;;;;;;5.16;70.86;99351.63;4979211;28;97377;-76